createdAt,value
2018-07-14T00:00:27.458Z,24.85
2018-07-14T00:02:56.710Z,24.77
2018-07-14T00:05:25.946Z,24.69
2018-07-14T00:07:55.248Z,24.59
2018-07-14T00:10:23.955Z,24.45
2018-07-14T00:12:52.898Z,24.37
2018-07-14T00:15:22.180Z,24.34
2018-07-14T00:17:51.255Z,24.32
2018-07-14T00:20:20.390Z,24.31
2018-07-14T00:22:49.632Z,24.26
2018-07-14T00:25:22.822Z,24.27
2018-07-14T00:27:52.095Z,24.33
2018-07-14T00:30:21.143Z,24.37
2018-07-14T00:32:50.209Z,24.38
2018-07-14T00:35:19.466Z,24.41
2018-07-14T00:37:48.371Z,24.38
2018-07-14T00:40:17.555Z,24.41
2018-07-14T00:42:46.860Z,24.41
2018-07-14T00:45:16.000Z,24.40
2018-07-14T00:47:45.261Z,24.35
2018-07-14T00:50:14.461Z,24.29
2018-07-14T00:52:43.454Z,24.23
2018-07-14T00:55:12.391Z,24.14
2018-07-14T00:57:41.386Z,24.05
2018-07-14T01:00:10.586Z,24.03
2018-07-14T01:02:39.642Z,24.06
2018-07-14T01:05:08.819Z,24.03
2018-07-14T01:07:37.848Z,24.00
2018-07-14T01:10:06.733Z,23.93
2018-07-14T01:12:35.897Z,23.92
2018-07-14T01:15:05.147Z,23.89
2018-07-14T01:17:34.287Z,23.86
2018-07-14T01:20:03.409Z,23.87
2018-07-14T01:22:32.269Z,23.86
2018-07-14T01:25:01.227Z,23.82
2018-07-14T01:27:30.029Z,23.80
2018-07-14T01:29:59.229Z,23.81
2018-07-14T01:35:06.454Z,23.80
2018-07-14T01:37:35.486Z,23.78
2018-07-14T01:40:04.460Z,23.79
2018-07-14T01:42:33.671Z,23.79
2018-07-14T01:45:02.671Z,23.79
2018-07-14T01:47:31.762Z,23.77
2018-07-14T01:50:00.849Z,23.80
2018-07-14T01:52:30.012Z,23.79
2018-07-14T01:54:59.151Z,23.78
2018-07-14T01:57:28.344Z,23.73
2018-07-14T01:59:57.486Z,23.68
2018-07-14T02:02:26.458Z,23.65
2018-07-14T02:04:55.666Z,23.66
2018-07-14T02:07:24.938Z,23.63
2018-07-14T02:09:54.046Z,23.61
2018-07-14T02:12:23.168Z,23.62
2018-07-14T02:14:52.219Z,23.62
2018-07-14T02:17:21.349Z,23.67
2018-07-14T02:19:50.111Z,23.69
2018-07-14T02:22:19.361Z,23.79
2018-07-14T02:24:48.424Z,23.80
2018-07-14T02:27:17.587Z,23.76
2018-07-14T02:29:46.913Z,23.74
2018-07-14T02:32:16.184Z,23.71
2018-07-14T02:34:45.409Z,23.70
2018-07-14T02:37:14.231Z,23.72
2018-07-14T02:39:43.298Z,23.70
2018-07-14T02:42:12.531Z,23.67
2018-07-14T02:44:41.610Z,23.68
2018-07-14T02:47:10.690Z,23.68
2018-07-14T02:49:39.778Z,23.68
2018-07-14T02:52:08.780Z,23.65
2018-07-14T02:54:37.707Z,23.67
2018-07-14T02:57:06.650Z,23.67
2018-07-14T02:59:35.840Z,23.68
2018-07-14T03:02:05.000Z,23.67
2018-07-14T03:04:34.137Z,23.67
2018-07-14T03:07:03.279Z,23.68
2018-07-14T03:09:32.599Z,23.71
2018-07-14T03:12:01.356Z,23.68
2018-07-14T03:14:30.519Z,23.69
2018-07-14T03:16:59.564Z,23.67
2018-07-14T03:19:28.862Z,23.70
2018-07-14T03:21:58.051Z,23.73
2018-07-14T03:24:27.308Z,23.66
2018-07-14T03:26:56.083Z,23.59
2018-07-14T03:29:25.120Z,23.56
2018-07-14T03:31:54.307Z,23.57
2018-07-14T03:34:23.329Z,23.56
2018-07-14T03:36:52.498Z,23.50
2018-07-14T03:39:21.509Z,23.47
2018-07-14T03:41:50.776Z,23.48
2018-07-14T03:44:19.802Z,23.48
2018-07-14T03:46:48.657Z,23.51
2018-07-14T03:49:17.903Z,23.57
2018-07-14T03:51:47.243Z,23.63
2018-07-14T03:54:16.335Z,23.64
2018-07-14T03:56:45.417Z,23.62
2018-07-14T03:59:14.578Z,23.57
2018-07-14T04:01:43.819Z,23.53
2018-07-14T04:04:12.875Z,23.54
2018-07-14T04:06:42.103Z,23.53
2018-07-14T04:09:11.260Z,23.53
2018-07-14T04:11:40.618Z,23.56
2018-07-14T04:14:09.358Z,23.57
2018-07-14T04:16:38.434Z,23.56
2018-07-14T04:19:07.777Z,23.57
2018-07-14T04:21:36.958Z,23.57
2018-07-14T04:24:06.240Z,23.59
2018-07-14T04:26:35.545Z,23.61
2018-07-14T04:29:04.589Z,23.64
2018-07-14T04:31:33.874Z,23.64
2018-07-14T04:34:02.691Z,23.67
2018-07-14T04:36:31.906Z,23.69
2018-07-14T04:39:01.052Z,23.73
2018-07-14T04:41:30.246Z,23.81
2018-07-14T04:43:59.303Z,23.88
2018-07-14T04:46:28.426Z,23.86
2018-07-14T04:48:57.734Z,23.90
2018-07-14T04:51:26.885Z,23.94
2018-07-14T04:53:56.213Z,23.99
2018-07-14T04:56:25.111Z,24.03
2018-07-14T04:58:54.262Z,24.09
2018-07-14T05:01:23.208Z,24.08
2018-07-14T05:03:52.434Z,24.10
2018-07-14T05:06:21.707Z,24.17
2018-07-14T05:08:50.926Z,24.23
2018-07-14T05:11:19.688Z,24.17
2018-07-14T05:13:48.626Z,24.23
2018-07-14T05:16:17.788Z,24.24
2018-07-14T05:18:46.843Z,24.31
2018-07-14T05:21:15.804Z,24.45
2018-07-14T05:23:44.886Z,24.43
2018-07-14T05:26:13.937Z,24.44
2018-07-14T05:28:43.296Z,24.43
2018-07-14T05:31:12.144Z,24.50
2018-07-14T05:33:41.248Z,24.59
2018-07-14T05:36:10.271Z,24.62
2018-07-14T05:38:39.506Z,24.71
2018-07-14T05:41:08.748Z,24.76
2018-07-14T05:43:38.091Z,24.79
2018-07-14T05:46:06.850Z,24.84
2018-07-14T05:48:35.839Z,24.90
2018-07-14T05:51:04.940Z,24.86
2018-07-14T05:53:34.183Z,24.90
2018-07-14T05:56:03.220Z,24.97
2018-07-14T05:58:32.410Z,24.99
2018-07-14T06:01:01.679Z,25.06
2018-07-14T06:03:30.520Z,25.12
2018-07-14T06:05:59.498Z,25.16
2018-07-14T06:08:28.732Z,25.20
2018-07-14T06:10:57.722Z,25.24
2018-07-14T06:13:26.795Z,25.22
2018-07-14T06:15:56.127Z,25.23
2018-07-14T06:18:25.178Z,25.31
2018-07-14T06:20:54.115Z,25.42
2018-07-14T06:23:23.350Z,25.51
2018-07-14T06:25:52.444Z,25.52
2018-07-14T06:28:21.518Z,25.45
2018-07-14T06:30:50.490Z,25.55
2018-07-14T06:33:19.721Z,25.62
2018-07-14T06:35:48.850Z,25.72
2018-07-14T06:38:17.757Z,25.73
2018-07-14T06:40:46.734Z,25.68
2018-07-14T06:43:15.710Z,25.66
2018-07-14T06:45:44.883Z,25.74
2018-07-14T06:48:13.911Z,25.81
2018-07-14T06:50:43.040Z,25.92
2018-07-14T06:53:11.854Z,26.05
2018-07-14T06:55:40.791Z,26.15
2018-07-14T06:58:09.969Z,26.11
2018-07-14T07:00:39.275Z,26.08
2018-07-14T07:03:08.562Z,26.14
2018-07-14T07:05:37.661Z,26.22
2018-07-14T07:08:06.860Z,26.24
2018-07-14T07:10:36.739Z,26.27
2018-07-14T07:13:05.561Z,26.34
2018-07-14T07:15:34.696Z,26.30
2018-07-14T07:18:03.718Z,26.42
2018-07-14T07:20:32.988Z,26.49
2018-07-14T07:23:02.189Z,26.61
2018-07-14T07:25:31.108Z,26.72
2018-07-14T07:28:00.200Z,26.76
2018-07-14T07:30:29.504Z,26.70
2018-07-14T07:32:58.592Z,26.65
2018-07-14T07:35:27.671Z,26.72
2018-07-14T07:37:57.063Z,26.91
2018-07-14T07:40:26.466Z,27.04
2018-07-14T07:42:56.025Z,27.09
2018-07-14T07:45:25.302Z,27.14
2018-07-14T07:47:54.118Z,27.23
2018-07-14T07:50:23.052Z,27.21
2018-07-14T07:52:52.116Z,27.15
2018-07-14T07:55:21.387Z,27.22
2018-07-14T07:57:50.592Z,27.30
2018-07-14T08:00:19.878Z,27.37
2018-07-14T08:02:49.118Z,27.43
2018-07-14T08:05:18.211Z,27.41
2018-07-14T08:07:47.200Z,27.34
2018-07-14T08:10:16.232Z,27.37
2018-07-14T08:12:45.343Z,27.46
2018-07-14T08:15:14.494Z,27.55
2018-07-14T08:17:43.792Z,27.65
2018-07-14T08:20:13.044Z,27.71
2018-07-14T08:22:42.116Z,27.79
2018-07-14T08:25:11.228Z,27.82
2018-07-14T08:27:40.419Z,27.85
2018-07-14T08:30:09.660Z,27.88
2018-07-14T08:32:38.790Z,27.92
2018-07-14T08:35:08.392Z,27.87
2018-07-14T08:37:38.776Z,27.86
2018-07-14T08:40:07.977Z,27.80
2018-07-14T08:42:36.803Z,27.85
2018-07-14T08:45:06.026Z,27.82
2018-07-14T08:47:34.957Z,27.91
2018-07-14T08:50:04.052Z,28.03
2018-07-14T08:52:32.914Z,28.13
2018-07-14T08:55:02.194Z,28.22
2018-07-14T08:57:30.983Z,28.37
2018-07-14T09:00:00.128Z,28.46
2018-07-14T09:02:29.326Z,28.52
2018-07-14T09:04:58.466Z,28.56
2018-07-14T09:07:27.633Z,28.64
2018-07-14T09:09:56.454Z,28.69
2018-07-14T09:12:25.479Z,28.49
2018-07-14T09:14:54.649Z,28.49
2018-07-14T09:17:23.697Z,28.59
2018-07-14T09:19:52.578Z,28.71
2018-07-14T09:22:21.841Z,28.73
2018-07-14T09:24:51.109Z,28.76
2018-07-14T09:27:20.350Z,28.74
2018-07-14T09:29:49.572Z,28.82
2018-07-14T09:32:18.700Z,28.99
2018-07-14T09:34:47.809Z,29.19
2018-07-14T09:37:16.620Z,29.48
2018-07-14T09:39:45.898Z,29.70
2018-07-14T09:42:14.730Z,29.89
2018-07-14T09:44:43.777Z,30.05
2018-07-14T09:47:13.024Z,30.39
2018-07-14T09:49:42.097Z,30.55
2018-07-14T09:52:11.309Z,31.34
2018-07-14T09:54:40.662Z,32.18
2018-07-14T09:57:09.873Z,32.48
2018-07-14T09:59:39.095Z,31.84
2018-07-14T10:02:08.790Z,32.03
2018-07-14T10:04:37.791Z,33.35
2018-07-14T10:07:06.980Z,34.26
2018-07-14T10:09:36.084Z,34.58
2018-07-14T10:12:05.332Z,35.41
2018-07-14T10:14:34.172Z,34.98
2018-07-14T10:17:03.187Z,34.39
2018-07-14T10:19:32.231Z,35.35
2018-07-14T10:22:01.554Z,36.47
2018-07-14T10:24:30.769Z,35.43
2018-07-14T10:26:59.611Z,33.64
2018-07-14T10:29:28.626Z,33.26
2018-07-14T10:31:57.795Z,34.74
2018-07-14T10:34:26.930Z,36.28
2018-07-14T10:36:56.013Z,37.40
2018-07-14T10:39:25.272Z,38.57
2018-07-14T10:41:54.263Z,39.80
2018-07-14T10:44:23.354Z,40.94
2018-07-14T10:46:52.240Z,40.35
2018-07-14T10:49:21.156Z,40.07
2018-07-14T10:51:50.370Z,39.88
2018-07-14T10:54:19.127Z,39.65
2018-07-14T10:56:48.457Z,38.39
2018-07-14T10:59:19.414Z,36.98
2018-07-14T11:01:48.512Z,35.96
2018-07-14T11:04:17.408Z,35.75
2018-07-14T11:06:47.585Z,36.33
2018-07-14T11:09:17.000Z,36.85
2018-07-14T11:11:46.470Z,37.50
2018-07-14T11:14:15.778Z,37.48
2018-07-14T11:16:44.971Z,37.21
2018-07-14T11:19:14.350Z,37.12
2018-07-14T11:21:43.389Z,37.23
2018-07-14T11:24:12.181Z,37.73
2018-07-14T11:26:41.282Z,37.92
2018-07-14T11:29:10.301Z,36.77
2018-07-14T11:31:39.576Z,35.52
2018-07-14T11:34:08.756Z,35.43
2018-07-14T11:36:37.929Z,36.02
2018-07-14T11:39:07.198Z,36.34
2018-07-14T11:41:36.108Z,36.60
2018-07-14T11:44:05.588Z,37.12
2018-07-14T11:46:34.459Z,37.39
2018-07-14T11:49:03.738Z,37.92
2018-07-14T11:51:32.924Z,39.05
2018-07-14T11:54:02.048Z,39.48
2018-07-14T11:56:31.287Z,38.56
2018-07-14T11:59:00.320Z,37.58
2018-07-14T12:01:29.691Z,36.94
2018-07-14T12:03:58.625Z,37.21
2018-07-14T12:06:27.496Z,36.25
2018-07-14T12:08:56.508Z,36.92
2018-07-14T12:11:25.390Z,37.80
2018-07-14T12:13:54.531Z,38.53
2018-07-14T12:16:23.691Z,38.85
2018-07-14T12:18:52.571Z,39.20
2018-07-14T12:21:21.810Z,39.09
2018-07-14T12:23:51.024Z,39.68
2018-07-14T12:26:20.203Z,40.15
2018-07-14T12:28:49.762Z,40.72
2018-07-14T12:31:19.134Z,39.33
2018-07-14T12:33:48.358Z,37.79
2018-07-14T12:36:18.333Z,37.34
2018-07-14T12:38:47.318Z,38.09
2018-07-14T12:41:16.481Z,39.20
2018-07-14T12:43:45.647Z,38.60
2018-07-14T12:46:14.499Z,38.21
2018-07-14T12:48:43.635Z,38.59
2018-07-14T12:51:12.588Z,39.52
2018-07-14T12:53:41.433Z,39.75
2018-07-14T12:56:10.589Z,40.16
2018-07-14T12:58:39.703Z,40.61
2018-07-14T13:01:09.010Z,40.10
2018-07-14T13:03:38.271Z,39.43
2018-07-14T13:06:07.726Z,39.54
2018-07-14T13:08:36.915Z,39.64
2018-07-14T13:11:05.976Z,39.89
2018-07-14T13:13:35.351Z,39.43
2018-07-14T13:16:04.657Z,39.80
2018-07-14T13:18:33.467Z,40.61
2018-07-14T13:21:02.586Z,40.82
2018-07-14T13:23:31.409Z,40.42
2018-07-14T13:26:00.531Z,40.29
2018-07-14T13:28:29.667Z,39.09
2018-07-14T13:30:58.373Z,39.01
2018-07-14T13:33:27.222Z,39.33
2018-07-14T13:35:56.150Z,39.40
2018-07-14T13:38:25.313Z,39.35
2018-07-14T13:40:54.299Z,38.86
2018-07-14T13:43:23.039Z,38.68
2018-07-14T13:45:51.903Z,38.77
2018-07-14T13:48:21.018Z,39.14
2018-07-14T13:50:50.141Z,39.68
2018-07-14T13:53:19.174Z,39.86
2018-07-14T13:55:48.451Z,39.71
2018-07-14T13:58:17.336Z,39.17
2018-07-14T14:00:46.164Z,38.96
2018-07-14T14:03:15.284Z,39.49
2018-07-14T14:05:44.649Z,39.25
2018-07-14T14:08:13.838Z,38.58
2018-07-14T14:10:43.142Z,38.31
2018-07-14T14:13:12.204Z,37.96
2018-07-14T14:15:41.330Z,37.08
2018-07-14T14:18:10.446Z,36.05
2018-07-14T14:20:39.770Z,35.42
2018-07-14T14:23:08.980Z,34.99
2018-07-14T14:25:38.206Z,34.76
2018-07-14T14:28:07.708Z,34.53
2018-07-14T14:30:37.175Z,34.36
2018-07-14T14:33:06.313Z,34.17
2018-07-14T14:35:35.038Z,34.03
2018-07-14T14:38:04.358Z,33.92
2018-07-14T14:40:33.211Z,33.74
2018-07-14T14:43:02.287Z,33.55
2018-07-14T14:45:31.352Z,33.28
2018-07-14T14:48:00.599Z,32.97
2018-07-14T14:50:29.722Z,32.83
2018-07-14T14:52:58.992Z,32.70
2018-07-14T14:55:34.366Z,32.68
2018-07-14T14:58:03.826Z,32.71
2018-07-14T15:00:33.070Z,32.66
2018-07-14T15:03:02.198Z,32.58
2018-07-14T15:05:31.403Z,32.43
2018-07-14T15:08:00.241Z,32.28
2018-07-14T15:10:29.440Z,32.08
2018-07-14T15:12:58.652Z,31.87
2018-07-14T15:15:27.870Z,31.68
2018-07-14T15:17:56.865Z,31.52
2018-07-14T15:20:26.016Z,31.34
2018-07-14T15:22:55.262Z,31.25
2018-07-14T15:25:24.030Z,31.25
2018-07-14T15:27:52.902Z,31.26
2018-07-14T15:30:22.266Z,31.34
2018-07-14T15:32:51.559Z,31.40
2018-07-14T15:35:20.594Z,31.38
2018-07-14T15:37:49.898Z,31.32
2018-07-14T15:40:19.169Z,31.21
2018-07-14T15:42:48.362Z,31.10
2018-07-14T15:45:17.205Z,31.04
2018-07-14T15:47:46.342Z,31.01
2018-07-14T15:50:15.571Z,30.90
2018-07-14T15:52:44.738Z,30.77
2018-07-14T15:55:14.096Z,30.68
2018-07-14T15:57:43.238Z,30.71
2018-07-14T16:00:12.516Z,30.73
2018-07-14T16:02:41.330Z,30.81
2018-07-14T16:05:10.668Z,30.80
2018-07-14T16:07:39.974Z,30.72
2018-07-14T16:10:09.212Z,30.57
2018-07-14T16:12:38.409Z,30.47
2018-07-14T16:15:07.311Z,30.36
2018-07-14T16:17:36.397Z,30.25
2018-07-14T16:20:05.750Z,30.17
2018-07-14T16:22:34.877Z,30.10
2018-07-14T16:25:04.101Z,30.06
2018-07-14T16:27:33.358Z,30.00
2018-07-14T16:30:02.542Z,29.95
2018-07-14T16:32:31.304Z,29.88
2018-07-14T16:35:00.627Z,29.75
2018-07-14T16:37:29.878Z,29.68
2018-07-14T16:39:58.981Z,29.62
2018-07-14T16:42:28.167Z,29.52
2018-07-14T16:44:57.010Z,29.47
2018-07-14T16:47:26.245Z,29.37
2018-07-14T16:49:55.744Z,29.21
2018-07-14T16:52:24.920Z,29.21
2018-07-14T16:54:53.994Z,29.17
2018-07-14T16:57:22.914Z,29.11
2018-07-14T16:59:52.033Z,28.98
2018-07-14T17:02:21.029Z,28.84
2018-07-14T17:04:50.076Z,28.71
2018-07-14T17:07:19.111Z,28.56
2018-07-14T17:09:48.290Z,28.48
2018-07-14T17:12:17.133Z,28.32
2018-07-14T17:14:45.882Z,28.19
2018-07-14T17:17:15.103Z,28.12
2018-07-14T17:19:44.223Z,28.09
2018-07-14T17:22:13.266Z,27.98
2018-07-14T17:24:42.542Z,28.00
2018-07-14T17:27:11.670Z,27.91
2018-07-14T17:29:40.802Z,27.90
2018-07-14T17:32:09.913Z,27.93
2018-07-14T17:34:38.954Z,27.97
2018-07-14T17:37:08.203Z,27.96
2018-07-14T17:39:37.422Z,27.95
2018-07-14T17:42:06.562Z,28.01
2018-07-14T17:44:35.820Z,27.97
2018-07-14T17:47:04.711Z,27.90
2018-07-14T17:49:33.862Z,27.83
2018-07-14T17:52:02.799Z,27.85
2018-07-14T17:54:32.150Z,27.80
2018-07-14T17:57:01.520Z,27.75
2018-07-14T17:59:30.694Z,27.71
2018-07-14T18:02:00.035Z,27.62
2018-07-14T18:04:29.079Z,27.55
2018-07-14T18:06:58.003Z,27.49
2018-07-14T18:09:27.265Z,27.42
2018-07-14T18:11:55.966Z,27.38
2018-07-14T18:14:24.759Z,27.26
2018-07-14T18:16:53.764Z,27.26
2018-07-14T18:19:22.902Z,27.22
2018-07-14T18:21:52.022Z,27.16
2018-07-14T18:24:21.123Z,27.10
2018-07-14T18:26:50.452Z,26.94
2018-07-14T18:29:19.609Z,26.82
2018-07-14T18:31:48.927Z,26.72
2018-07-14T18:34:17.778Z,26.62
2018-07-14T18:36:46.872Z,26.53
2018-07-14T18:39:16.327Z,26.44
2018-07-14T18:41:45.452Z,26.36
2018-07-14T18:44:14.712Z,26.31
2018-07-14T18:46:44.125Z,26.30
2018-07-14T18:49:13.398Z,26.34
2018-07-14T18:51:42.710Z,26.31
2018-07-14T18:54:11.915Z,26.31
2018-07-14T18:56:40.782Z,26.32
2018-07-14T18:59:10.925Z,26.31
2018-07-14T19:01:40.123Z,26.27
2018-07-14T19:04:09.449Z,26.23
2018-07-14T19:06:39.024Z,26.24
2018-07-14T19:09:07.923Z,26.19
2018-07-14T19:11:37.040Z,26.19
2018-07-14T19:14:06.018Z,26.13
2018-07-14T19:16:34.814Z,26.12
2018-07-14T19:19:04.002Z,26.07
2018-07-14T19:21:33.035Z,25.98
2018-07-14T19:24:02.339Z,25.93
2018-07-14T19:26:31.298Z,25.84
2018-07-14T19:29:00.484Z,25.80
2018-07-14T19:31:29.753Z,25.75
2018-07-14T19:33:58.641Z,25.72
2018-07-14T19:36:27.811Z,25.70
2018-07-14T19:38:57.068Z,25.74
2018-07-14T19:41:26.255Z,25.72
2018-07-14T19:43:55.423Z,25.78
2018-07-14T19:46:24.620Z,25.79
2018-07-14T19:48:53.439Z,25.78
2018-07-14T19:51:22.381Z,25.78
2018-07-14T19:53:51.329Z,25.80
2018-07-14T19:56:20.630Z,25.86
2018-07-14T19:58:49.792Z,25.91
2018-07-14T20:01:18.766Z,26.00
2018-07-14T20:03:48.220Z,26.00
2018-07-14T20:06:17.301Z,25.99
2018-07-14T20:08:46.585Z,26.02
2018-07-14T20:11:15.539Z,26.04
2018-07-14T20:13:44.576Z,26.00
2018-07-14T20:16:13.539Z,25.97
2018-07-14T20:18:42.710Z,25.93
2018-07-14T20:21:11.878Z,25.88
2018-07-14T20:23:41.034Z,25.81
2018-07-14T20:26:09.851Z,25.75
2018-07-14T20:28:38.950Z,25.69
2018-07-14T20:31:08.118Z,25.65
2018-07-14T20:33:37.331Z,25.64
2018-07-14T20:36:06.658Z,25.64
2018-07-14T20:38:35.710Z,25.56
2018-07-14T20:41:05.030Z,25.53
2018-07-14T20:43:34.140Z,25.43
2018-07-14T20:46:02.990Z,25.26
2018-07-14T20:48:31.778Z,25.06
2018-07-14T20:51:01.003Z,24.97
2018-07-14T20:53:30.092Z,24.94
2018-07-14T20:55:58.955Z,24.90
2018-07-14T20:58:28.170Z,24.92
2018-07-14T21:00:57.190Z,24.94
2018-07-14T21:03:26.481Z,24.97
2018-07-14T21:05:56.485Z,25.03
2018-07-14T21:08:25.776Z,25.07
2018-07-14T21:10:54.858Z,25.06
2018-07-14T21:13:24.151Z,25.08
2018-07-14T21:15:53.103Z,25.11
2018-07-14T21:18:22.398Z,25.13
2018-07-14T21:20:51.449Z,25.18
2018-07-14T21:23:20.875Z,25.16
2018-07-14T21:25:50.128Z,25.19
2018-07-14T21:28:19.358Z,25.12
2018-07-14T21:30:48.502Z,25.11
2018-07-14T21:33:17.703Z,25.07
2018-07-14T21:35:47.024Z,25.01
2018-07-14T21:38:16.085Z,24.98
2018-07-14T21:40:45.096Z,24.95
2018-07-14T21:43:14.082Z,24.88
2018-07-14T21:45:43.298Z,24.93
2018-07-14T21:48:12.166Z,24.89
2018-07-14T21:50:41.039Z,24.95
2018-07-14T21:53:09.681Z,24.97
2018-07-14T21:55:38.909Z,24.95
2018-07-14T21:58:08.248Z,24.96
2018-07-14T22:00:42.366Z,24.95
2018-07-14T22:03:11.430Z,24.89
2018-07-14T22:05:40.659Z,24.91
2018-07-14T22:08:09.703Z,24.94
2018-07-14T22:10:38.944Z,24.91
2018-07-14T22:13:08.197Z,24.87
2018-07-14T22:15:37.476Z,24.88
2018-07-14T22:18:06.720Z,24.82
2018-07-14T22:20:36.002Z,24.75
2018-07-14T22:23:05.348Z,24.69
2018-07-14T22:25:34.608Z,24.68
2018-07-14T22:28:03.810Z,24.62
2018-07-14T22:30:33.105Z,24.56
2018-07-14T22:33:02.331Z,24.53
2018-07-14T22:35:31.370Z,24.44
2018-07-14T22:38:00.358Z,24.35
2018-07-14T22:40:29.635Z,24.30
2018-07-14T22:42:58.875Z,24.26
2018-07-14T22:45:28.180Z,24.27
2018-07-14T22:47:57.575Z,24.24
2018-07-14T22:50:26.806Z,24.20
2018-07-14T22:52:56.139Z,24.14
2018-07-14T22:55:25.286Z,24.16
2018-07-14T22:57:54.288Z,24.18
2018-07-14T23:00:23.406Z,24.19
2018-07-14T23:02:52.560Z,24.21
2018-07-14T23:05:21.804Z,24.18
2018-07-14T23:07:50.751Z,24.13
2018-07-14T23:10:19.867Z,24.13
2018-07-14T23:12:48.799Z,24.14
2018-07-14T23:15:18.113Z,24.15
2018-07-14T23:17:47.311Z,24.12
2018-07-14T23:20:16.533Z,24.14
2018-07-14T23:22:45.702Z,24.10
2018-07-14T23:25:14.943Z,24.06
2018-07-14T23:27:44.092Z,24.05
2018-07-14T23:30:13.112Z,24.02
2018-07-14T23:32:42.290Z,24.00
2018-07-14T23:35:11.258Z,24.00
2018-07-14T23:37:40.492Z,24.00
2018-07-14T23:40:09.679Z,23.97
2018-07-14T23:42:38.866Z,23.95
2018-07-14T23:45:08.044Z,23.97
2018-07-14T23:47:36.981Z,23.94
2018-07-14T23:50:06.084Z,23.95
2018-07-14T23:52:35.289Z,23.94
2018-07-14T23:55:04.348Z,23.99
2018-07-14T23:57:33.442Z,23.99
